sensor_id;sensor_type;location;lat;lon;timestamp;P1;durP1;ratioP1;P2;durP2;ratioP2
5734;SDS011;2892;47.592;7.688;2024-03-25T00:01:34;3.57;;;1.07;;
5734;SDS011;2892;47.592;7.688;2024-03-25T00:04:00;4.33;;;1.23;;
5734;SDS011;2892;47.592;7.688;2024-03-25T00:06:25;2.03;;;1.00;;
5734;SDS011;2892;47.592;7.688;2024-03-25T00:08:51;1.97;;;1.10;;
5734;SDS011;2892;47.592;7.688;2024-03-25T00:11:16;8.73;;;1.30;;
5734;SDS011;2892;47.592;7.688;2024-03-25T00:13:42;0.80;;;0.80;;
5734;SDS011;2892;47.592;7.688;2024-03-25T00:16:07;1.57;;;0.80;;
5734;SDS011;2892;47.592;7.688;2024-03-25T00:18:33;16.83;;;1.13;;
5734;SDS011;2892;47.592;7.688;2024-03-25T00:20:58;0.70;;;0.70;;
5734;SDS011;2892;47.592;7.688;2024-03-25T00:23:24;1.13;;;1.03;;
5734;SDS011;2892;47.592;7.688;2024-03-25T00:25:50;1.20;;;1.10;;
5734;SDS011;2892;47.592;7.688;2024-03-25T00:28:15;2.10;;;0.93;;
5734;SDS011;2892;47.592;7.688;2024-03-25T00:30:41;0.70;;;0.60;;
5734;SDS011;2892;47.592;7.688;2024-03-25T00:33:06;1.33;;;0.80;;
5734;SDS011;2892;47.592;7.688;2024-03-25T00:35:33;0.70;;;0.70;;
5734;SDS011;2892;47.592;7.688;2024-03-25T00:37:59;0.80;;;0.70;;
5734;SDS011;2892;47.592;7.688;2024-03-25T00:40:25;1.67;;;1.17;;
5734;SDS011;2892;47.592;7.688;2024-03-25T00:42:50;1.07;;;0.97;;
5734;SDS011;2892;47.592;7.688;2024-03-25T00:45:15;1.17;;;0.87;;
5734;SDS011;2892;47.592;7.688;2024-03-25T00:47:41;1.87;;;0.87;;
5734;SDS011;2892;47.592;7.688;2024-03-25T00:50:07;5.90;;;1.00;;
5734;SDS011;2892;47.592;7.688;2024-03-25T00:52:33;3.70;;;1.00;;
5734;SDS011;2892;47.592;7.688;2024-03-25T00:54:58;3.33;;;1.10;;
5734;SDS011;2892;47.592;7.688;2024-03-25T00:57:24;1.00;;;0.90;;
5734;SDS011;2892;47.592;7.688;2024-03-25T00:59:49;1.20;;;0.80;;
5734;SDS011;2892;47.592;7.688;2024-03-25T01:02:15;1.50;;;0.90;;
5734;SDS011;2892;47.592;7.688;2024-03-25T01:04:40;1.33;;;0.87;;
5734;SDS011;2892;47.592;7.688;2024-03-25T01:07:06;0.80;;;0.80;;
5734;SDS011;2892;47.592;7.688;2024-03-25T01:09:31;3.30;;;1.27;;
5734;SDS011;2892;47.592;7.688;2024-03-25T01:11:57;1.53;;;1.23;;
5734;SDS011;2892;47.592;7.688;2024-03-25T01:14:22;1.53;;;0.87;;
5734;SDS011;2892;47.592;7.688;2024-03-25T01:16:48;1.47;;;0.87;;
5734;SDS011;2892;47.592;7.688;2024-03-25T01:19:13;8.67;;;1.10;;
5734;SDS011;2892;47.592;7.688;2024-03-25T01:21:39;1.93;;;0.90;;
5734;SDS011;2892;47.592;7.688;2024-03-25T01:24:04;1.33;;;0.90;;
5734;SDS011;2892;47.592;7.688;2024-03-25T01:26:30;2.50;;;1.40;;
5734;SDS011;2892;47.592;7.688;2024-03-25T01:28:55;1.00;;;0.90;;
5734;SDS011;2892;47.592;7.688;2024-03-25T01:31:21;1.63;;;0.90;;
5734;SDS011;2892;47.592;7.688;2024-03-25T01:33:46;1.47;;;0.80;;
5734;SDS011;2892;47.592;7.688;2024-03-25T01:36:12;0.93;;;0.80;;
5734;SDS011;2892;47.592;7.688;2024-03-25T01:38:37;1.23;;;1.13;;
5734;SDS011;2892;47.592;7.688;2024-03-25T01:41:06;3.50;;;1.20;;
5734;SDS011;2892;47.592;7.688;2024-03-25T01:43:34;0.80;;;0.80;;
5734;SDS011;2892;47.592;7.688;2024-03-25T01:46:00;3.63;;;1.37;;
5734;SDS011;2892;47.592;7.688;2024-03-25T01:48:26;3.93;;;0.83;;
5734;SDS011;2892;47.592;7.688;2024-03-25T01:50:51;0.80;;;0.80;;
5734;SDS011;2892;47.592;7.688;2024-03-25T01:53:18;5.27;;;1.50;;
5734;SDS011;2892;47.592;7.688;2024-03-25T01:55:45;1.90;;;1.80;;
5734;SDS011;2892;47.592;7.688;2024-03-25T01:58:12;1.10;;;1.00;;
5734;SDS011;2892;47.592;7.688;2024-03-25T02:00:38;1.03;;;0.93;;
5734;SDS011;2892;47.592;7.688;2024-03-25T02:03:04;1.00;;;0.90;;
5734;SDS011;2892;47.592;7.688;2024-03-25T02:05:29;1.33;;;1.20;;
5734;SDS011;2892;47.592;7.688;2024-03-25T02:07:55;0.80;;;0.80;;
5734;SDS011;2892;47.592;7.688;2024-03-25T02:10:21;2.40;;;0.83;;
5734;SDS011;2892;47.592;7.688;2024-03-25T02:12:47;0.87;;;0.77;;
5734;SDS011;2892;47.592;7.688;2024-03-25T02:15:14;2.80;;;1.50;;
5734;SDS011;2892;47.592;7.688;2024-03-25T02:17:40;0.90;;;0.90;;
5734;SDS011;2892;47.592;7.688;2024-03-25T02:20:06;1.20;;;0.97;;
5734;SDS011;2892;47.592;7.688;2024-03-25T02:22:33;1.00;;;0.73;;
5734;SDS011;2892;47.592;7.688;2024-03-25T02:24:59;0.90;;;0.90;;
5734;SDS011;2892;47.592;7.688;2024-03-25T02:27:25;1.23;;;1.07;;
5734;SDS011;2892;47.592;7.688;2024-03-25T02:29:51;1.07;;;0.97;;
5734;SDS011;2892;47.592;7.688;2024-03-25T02:32:17;1.97;;;0.80;;
5734;SDS011;2892;47.592;7.688;2024-03-25T02:34:45;4.73;;;2.33;;
5734;SDS011;2892;47.592;7.688;2024-03-25T02:37:13;2.30;;;1.30;;
5734;SDS011;2892;47.592;7.688;2024-03-25T02:39:38;1.30;;;1.00;;
5734;SDS011;2892;47.592;7.688;2024-03-25T02:42:04;0.70;;;0.70;;
5734;SDS011;2892;47.592;7.688;2024-03-25T02:44:30;0.60;;;0.60;;
5734;SDS011;2892;47.592;7.688;2024-03-25T02:46:57;1.73;;;0.90;;
5734;SDS011;2892;47.592;7.688;2024-03-25T02:49:23;1.50;;;0.90;;
5734;SDS011;2892;47.592;7.688;2024-03-25T02:51:48;1.40;;;1.30;;
5734;SDS011;2892;47.592;7.688;2024-03-25T02:54:14;1.13;;;1.03;;
5734;SDS011;2892;47.592;7.688;2024-03-25T02:56:39;1.77;;;1.03;;
5734;SDS011;2892;47.592;7.688;2024-03-25T02:59:05;1.10;;;1.00;;
5734;SDS011;2892;47.592;7.688;2024-03-25T03:01:31;1.10;;;0.97;;
5734;SDS011;2892;47.592;7.688;2024-03-25T03:03:56;2.30;;;1.20;;
5734;SDS011;2892;47.592;7.688;2024-03-25T03:06:22;0.80;;;0.80;;
5734;SDS011;2892;47.592;7.688;2024-03-25T03:08:47;1.20;;;1.00;;
5734;SDS011;2892;47.592;7.688;2024-03-25T03:11:13;2.77;;;1.07;;
5734;SDS011;2892;47.592;7.688;2024-03-25T03:13:38;6.47;;;1.30;;
5734;SDS011;2892;47.592;7.688;2024-03-25T03:16:04;1.10;;;0.90;;
5734;SDS011;2892;47.592;7.688;2024-03-25T03:18:30;2.00;;;1.00;;
5734;SDS011;2892;47.592;7.688;2024-03-25T03:20:55;1.23;;;0.93;;
5734;SDS011;2892;47.592;7.688;2024-03-25T03:23:21;3.93;;;1.10;;
5734;SDS011;2892;47.592;7.688;2024-03-25T03:25:47;2.20;;;1.60;;
5734;SDS011;2892;47.592;7.688;2024-03-25T03:28:12;0.90;;;0.80;;
5734;SDS011;2892;47.592;7.688;2024-03-25T03:30:38;1.20;;;1.10;;
5734;SDS011;2892;47.592;7.688;2024-03-25T03:33:04;1.50;;;1.30;;
5734;SDS011;2892;47.592;7.688;2024-03-25T03:35:29;2.63;;;1.73;;
5734;SDS011;2892;47.592;7.688;2024-03-25T03:37:58;5.23;;;1.43;;
5734;SDS011;2892;47.592;7.688;2024-03-25T03:40:23;1.40;;;1.30;;
5734;SDS011;2892;47.592;7.688;2024-03-25T03:42:49;2.90;;;1.50;;
5734;SDS011;2892;47.592;7.688;2024-03-25T03:45:14;3.50;;;1.40;;
5734;SDS011;2892;47.592;7.688;2024-03-25T03:47:40;6.70;;;1.40;;
5734;SDS011;2892;47.592;7.688;2024-03-25T03:50:05;1.20;;;1.10;;
5734;SDS011;2892;47.592;7.688;2024-03-25T03:52:31;2.40;;;1.20;;
5734;SDS011;2892;47.592;7.688;2024-03-25T03:54:56;1.17;;;0.93;;
5734;SDS011;2892;47.592;7.688;2024-03-25T03:57:22;1.57;;;1.33;;
5734;SDS011;2892;47.592;7.688;2024-03-25T03:59:47;4.90;;;1.67;;
5734;SDS011;2892;47.592;7.688;2024-03-25T04:02:13;2.33;;;1.73;;
5734;SDS011;2892;47.592;7.688;2024-03-25T04:04:38;2.20;;;1.63;;
5734;SDS011;2892;47.592;7.688;2024-03-25T04:07:04;2.40;;;2.17;;
5734;SDS011;2892;47.592;7.688;2024-03-25T04:09:29;2.17;;;1.60;;
5734;SDS011;2892;47.592;7.688;2024-03-25T04:11:55;9.37;;;2.20;;
5734;SDS011;2892;47.592;7.688;2024-03-25T04:14:20;2.73;;;1.90;;
5734;SDS011;2892;47.592;7.688;2024-03-25T04:16:46;2.43;;;1.53;;
5734;SDS011;2892;47.592;7.688;2024-03-25T04:19:11;2.63;;;2.00;;
5734;SDS011;2892;47.592;7.688;2024-03-25T04:21:37;11.47;;;1.57;;
5734;SDS011;2892;47.592;7.688;2024-03-25T04:24:02;1.60;;;1.43;;
5734;SDS011;2892;47.592;7.688;2024-03-25T04:26:28;3.20;;;1.90;;
5734;SDS011;2892;47.592;7.688;2024-03-25T04:28:53;6.60;;;1.77;;
5734;SDS011;2892;47.592;7.688;2024-03-25T04:31:19;5.90;;;1.67;;
5734;SDS011;2892;47.592;7.688;2024-03-25T04:33:44;4.80;;;2.27;;
5734;SDS011;2892;47.592;7.688;2024-03-25T04:36:10;3.03;;;1.33;;
5734;SDS011;2892;47.592;7.688;2024-03-25T04:38:35;4.40;;;2.30;;
5734;SDS011;2892;47.592;7.688;2024-03-25T04:41:01;2.97;;;1.90;;
5734;SDS011;2892;47.592;7.688;2024-03-25T04:43:26;2.00;;;1.47;;
5734;SDS011;2892;47.592;7.688;2024-03-25T04:45:52;5.00;;;1.73;;
5734;SDS011;2892;47.592;7.688;2024-03-25T04:48:17;2.20;;;1.67;;
5734;SDS011;2892;47.592;7.688;2024-03-25T04:50:42;4.57;;;2.00;;
5734;SDS011;2892;47.592;7.688;2024-03-25T04:53:08;2.07;;;1.83;;
5734;SDS011;2892;47.592;7.688;2024-03-25T04:55:33;2.57;;;1.80;;
5734;SDS011;2892;47.592;7.688;2024-03-25T04:57:59;2.03;;;1.60;;
5734;SDS011;2892;47.592;7.688;2024-03-25T05:00:24;2.13;;;1.70;;
5734;SDS011;2892;47.592;7.688;2024-03-25T05:02:50;6.93;;;2.07;;
5734;SDS011;2892;47.592;7.688;2024-03-25T05:05:15;3.17;;;2.23;;
5734;SDS011;2892;47.592;7.688;2024-03-25T05:07:41;2.13;;;1.67;;
5734;SDS011;2892;47.592;7.688;2024-03-25T05:10:07;4.80;;;1.83;;
5734;SDS011;2892;47.592;7.688;2024-03-25T05:12:32;2.20;;;1.73;;
5734;SDS011;2892;47.592;7.688;2024-03-25T05:14:58;5.50;;;2.27;;
5734;SDS011;2892;47.592;7.688;2024-03-25T05:17:23;3.50;;;1.80;;
5734;SDS011;2892;47.592;7.688;2024-03-25T05:19:49;4.07;;;1.80;;
5734;SDS011;2892;47.592;7.688;2024-03-25T05:22:14;3.13;;;2.07;;
5734;SDS011;2892;47.592;7.688;2024-03-25T05:24:40;2.40;;;1.77;;
5734;SDS011;2892;47.592;7.688;2024-03-25T05:27:05;3.50;;;1.87;;
5734;SDS011;2892;47.592;7.688;2024-03-25T05:29:31;3.37;;;1.40;;
5734;SDS011;2892;47.592;7.688;2024-03-25T05:31:57;2.97;;;1.80;;
5734;SDS011;2892;47.592;7.688;2024-03-25T05:34:25;2.00;;;1.77;;
5734;SDS011;2892;47.592;7.688;2024-03-25T05:36:52;2.80;;;1.93;;
5734;SDS011;2892;47.592;7.688;2024-03-25T05:39:17;2.20;;;1.40;;
5734;SDS011;2892;47.592;7.688;2024-03-25T05:41:43;2.50;;;1.60;;
5734;SDS011;2892;47.592;7.688;2024-03-25T05:44:09;3.23;;;1.93;;
5734;SDS011;2892;47.592;7.688;2024-03-25T05:46:35;2.73;;;1.77;;
5734;SDS011;2892;47.592;7.688;2024-03-25T05:49:02;3.07;;;1.93;;
5734;SDS011;2892;47.592;7.688;2024-03-25T05:51:28;2.90;;;1.70;;
5734;SDS011;2892;47.592;7.688;2024-03-25T05:53:54;3.87;;;1.80;;
5734;SDS011;2892;47.592;7.688;2024-03-25T05:56:20;1.93;;;1.60;;
5734;SDS011;2892;47.592;7.688;2024-03-25T05:58:46;2.20;;;1.67;;
5734;SDS011;2892;47.592;7.688;2024-03-25T06:01:11;2.50;;;1.47;;
5734;SDS011;2892;47.592;7.688;2024-03-25T06:03:37;3.10;;;1.60;;
5734;SDS011;2892;47.592;7.688;2024-03-25T06:06:02;6.70;;;2.00;;
5734;SDS011;2892;47.592;7.688;2024-03-25T06:08:28;5.13;;;2.40;;
5734;SDS011;2892;47.592;7.688;2024-03-25T06:10:53;4.10;;;2.10;;
5734;SDS011;2892;47.592;7.688;2024-03-25T06:13:19;4.13;;;2.37;;
5734;SDS011;2892;47.592;7.688;2024-03-25T06:15:45;2.40;;;1.90;;
5734;SDS011;2892;47.592;7.688;2024-03-25T06:18:11;4.33;;;2.40;;
5734;SDS011;2892;47.592;7.688;2024-03-25T06:20:37;1.63;;;1.53;;
5734;SDS011;2892;47.592;7.688;2024-03-25T06:23:03;3.10;;;1.67;;
5734;SDS011;2892;47.592;7.688;2024-03-25T06:25:28;2.63;;;1.87;;
5734;SDS011;2892;47.592;7.688;2024-03-25T06:27:54;1.57;;;1.47;;
5734;SDS011;2892;47.592;7.688;2024-03-25T06:30:20;2.77;;;2.00;;
5734;SDS011;2892;47.592;7.688;2024-03-25T06:32:45;3.60;;;2.47;;
5734;SDS011;2892;47.592;7.688;2024-03-25T06:35:11;7.50;;;2.37;;
5734;SDS011;2892;47.592;7.688;2024-03-25T06:37:36;5.20;;;3.10;;
5734;SDS011;2892;47.592;7.688;2024-03-25T06:40:02;2.60;;;2.20;;
5734;SDS011;2892;47.592;7.688;2024-03-25T06:42:28;4.73;;;2.90;;
5734;SDS011;2892;47.592;7.688;2024-03-25T06:44:53;2.73;;;2.50;;
5734;SDS011;2892;47.592;7.688;2024-03-25T06:47:19;4.27;;;2.80;;
5734;SDS011;2892;47.592;7.688;2024-03-25T06:49:44;3.80;;;2.43;;
5734;SDS011;2892;47.592;7.688;2024-03-25T06:52:10;4.37;;;2.17;;
5734;SDS011;2892;47.592;7.688;2024-03-25T06:54:35;4.33;;;2.50;;
5734;SDS011;2892;47.592;7.688;2024-03-25T06:57:00;3.60;;;2.77;;
5734;SDS011;2892;47.592;7.688;2024-03-25T06:59:26;4.17;;;3.00;;
5734;SDS011;2892;47.592;7.688;2024-03-25T07:01:51;3.77;;;2.20;;
5734;SDS011;2892;47.592;7.688;2024-03-25T07:04:17;5.90;;;2.50;;
5734;SDS011;2892;47.592;7.688;2024-03-25T07:06:42;4.87;;;2.90;;
5734;SDS011;2892;47.592;7.688;2024-03-25T07:09:08;3.53;;;2.60;;
5734;SDS011;2892;47.592;7.688;2024-03-25T07:11:33;4.57;;;2.37;;
5734;SDS011;2892;47.592;7.688;2024-03-25T07:13:59;4.50;;;2.57;;
5734;SDS011;2892;47.592;7.688;2024-03-25T07:16:24;2.80;;;2.40;;
5734;SDS011;2892;47.592;7.688;2024-03-25T07:18:50;3.03;;;2.30;;
5734;SDS011;2892;47.592;7.688;2024-03-25T07:21:15;8.20;;;2.63;;
5734;SDS011;2892;47.592;7.688;2024-03-25T07:23:41;5.23;;;3.23;;
5734;SDS011;2892;47.592;7.688;2024-03-25T07:26:06;4.80;;;2.93;;
5734;SDS011;2892;47.592;7.688;2024-03-25T07:28:32;7.67;;;3.17;;
5734;SDS011;2892;47.592;7.688;2024-03-25T07:30:57;4.53;;;3.13;;
5734;SDS011;2892;47.592;7.688;2024-03-25T07:33:23;8.10;;;3.70;;
5734;SDS011;2892;47.592;7.688;2024-03-25T07:35:48;5.77;;;3.50;;
5734;SDS011;2892;47.592;7.688;2024-03-25T07:38:13;3.40;;;2.77;;
5734;SDS011;2892;47.592;7.688;2024-03-25T07:40:39;3.63;;;2.43;;
5734;SDS011;2892;47.592;7.688;2024-03-25T07:43:04;6.20;;;2.90;;
5734;SDS011;2892;47.592;7.688;2024-03-25T07:45:30;4.27;;;2.63;;
5734;SDS011;2892;47.592;7.688;2024-03-25T07:47:55;7.20;;;3.03;;
5734;SDS011;2892;47.592;7.688;2024-03-25T07:50:21;4.37;;;2.00;;
5734;SDS011;2892;47.592;7.688;2024-03-25T07:52:46;2.10;;;1.87;;
5734;SDS011;2892;47.592;7.688;2024-03-25T07:55:12;3.60;;;2.03;;
5734;SDS011;2892;47.592;7.688;2024-03-25T07:57:37;2.50;;;2.30;;
5734;SDS011;2892;47.592;7.688;2024-03-25T08:00:03;4.50;;;1.80;;
5734;SDS011;2892;47.592;7.688;2024-03-25T08:02:29;3.87;;;1.80;;
5734;SDS011;2892;47.592;7.688;2024-03-25T08:04:55;2.50;;;1.60;;
5734;SDS011;2892;47.592;7.688;2024-03-25T08:07:20;2.80;;;1.60;;
5734;SDS011;2892;47.592;7.688;2024-03-25T08:09:46;2.07;;;1.50;;
5734;SDS011;2892;47.592;7.688;2024-03-25T08:12:11;2.17;;;1.60;;
5734;SDS011;2892;47.592;7.688;2024-03-25T08:14:36;2.23;;;2.00;;
5734;SDS011;2892;47.592;7.688;2024-03-25T08:17:02;1.80;;;1.40;;
5734;SDS011;2892;47.592;7.688;2024-03-25T08:19:28;4.00;;;1.73;;
5734;SDS011;2892;47.592;7.688;2024-03-25T08:21:53;2.77;;;1.70;;
5734;SDS011;2892;47.592;7.688;2024-03-25T08:24:19;2.13;;;1.80;;
5734;SDS011;2892;47.592;7.688;2024-03-25T08:26:44;1.80;;;1.30;;
5734;SDS011;2892;47.592;7.688;2024-03-25T08:29:10;3.50;;;1.60;;
5734;SDS011;2892;47.592;7.688;2024-03-25T08:31:35;5.73;;;1.53;;
5734;SDS011;2892;47.592;7.688;2024-03-25T08:34:01;2.70;;;1.30;;
5734;SDS011;2892;47.592;7.688;2024-03-25T08:36:26;1.00;;;0.90;;
5734;SDS011;2892;47.592;7.688;2024-03-25T08:38:51;4.80;;;1.77;;
5734;SDS011;2892;47.592;7.688;2024-03-25T08:41:17;7.67;;;1.50;;
5734;SDS011;2892;47.592;7.688;2024-03-25T08:43:42;6.20;;;1.37;;
5734;SDS011;2892;47.592;7.688;2024-03-25T08:46:08;1.87;;;1.40;;
5734;SDS011;2892;47.592;7.688;2024-03-25T08:48:33;3.23;;;1.77;;
5734;SDS011;2892;47.592;7.688;2024-03-25T08:50:59;1.63;;;1.20;;
5734;SDS011;2892;47.592;7.688;2024-03-25T08:53:24;3.03;;;1.60;;
5734;SDS011;2892;47.592;7.688;2024-03-25T08:55:50;3.73;;;1.90;;
5734;SDS011;2892;47.592;7.688;2024-03-25T08:58:15;2.23;;;1.50;;
5734;SDS011;2892;47.592;7.688;2024-03-25T09:00:42;3.00;;;1.50;;
5734;SDS011;2892;47.592;7.688;2024-03-25T09:03:08;1.10;;;1.00;;
5734;SDS011;2892;47.592;7.688;2024-03-25T09:05:34;6.20;;;1.70;;
5734;SDS011;2892;47.592;7.688;2024-03-25T09:07:59;4.20;;;1.63;;
5734;SDS011;2892;47.592;7.688;2024-03-25T09:10:25;5.33;;;1.50;;
5734;SDS011;2892;47.592;7.688;2024-03-25T09:12:51;2.90;;;1.73;;
5734;SDS011;2892;47.592;7.688;2024-03-25T09:15:16;1.80;;;1.53;;
5734;SDS011;2892;47.592;7.688;2024-03-25T09:17:42;5.30;;;1.70;;
5734;SDS011;2892;47.592;7.688;2024-03-25T09:20:07;2.17;;;1.23;;
5734;SDS011;2892;47.592;7.688;2024-03-25T09:22:33;2.27;;;1.20;;
5734;SDS011;2892;47.592;7.688;2024-03-25T09:24:59;2.10;;;1.70;;
5734;SDS011;2892;47.592;7.688;2024-03-25T09:27:24;1.90;;;1.20;;
5734;SDS011;2892;47.592;7.688;2024-03-25T09:29:50;2.10;;;1.50;;
5734;SDS011;2892;47.592;7.688;2024-03-25T09:32:15;1.80;;;1.33;;
5734;SDS011;2892;47.592;7.688;2024-03-25T09:34:41;8.30;;;1.57;;
5734;SDS011;2892;47.592;7.688;2024-03-25T09:37:06;3.53;;;1.60;;
5734;SDS011;2892;47.592;7.688;2024-03-25T09:39:32;2.20;;;1.77;;
5734;SDS011;2892;47.592;7.688;2024-03-25T09:41:57;2.50;;;1.73;;
5734;SDS011;2892;47.592;7.688;2024-03-25T09:44:26;4.00;;;1.67;;
5734;SDS011;2892;47.592;7.688;2024-03-25T09:46:56;2.60;;;1.33;;
5734;SDS011;2892;47.592;7.688;2024-03-25T09:49:21;3.23;;;1.60;;
5734;SDS011;2892;47.592;7.688;2024-03-25T09:51:48;1.40;;;1.10;;
5734;SDS011;2892;47.592;7.688;2024-03-25T09:54:15;3.23;;;1.70;;
5734;SDS011;2892;47.592;7.688;2024-03-25T09:56:41;2.63;;;1.70;;
5734;SDS011;2892;47.592;7.688;2024-03-25T09:59:07;1.97;;;1.50;;
5734;SDS011;2892;47.592;7.688;2024-03-25T10:01:32;2.90;;;1.63;;
5734;SDS011;2892;47.592;7.688;2024-03-25T10:03:58;2.40;;;1.40;;
5734;SDS011;2892;47.592;7.688;2024-03-25T10:06:23;1.80;;;1.20;;
5734;SDS011;2892;47.592;7.688;2024-03-25T10:08:52;2.20;;;1.50;;
5734;SDS011;2892;47.592;7.688;2024-03-25T10:11:19;1.67;;;1.00;;
5734;SDS011;2892;47.592;7.688;2024-03-25T10:13:45;2.10;;;1.30;;
5734;SDS011;2892;47.592;7.688;2024-03-25T10:16:10;3.90;;;1.40;;
5734;SDS011;2892;47.592;7.688;2024-03-25T10:18:35;3.27;;;1.53;;
5734;SDS011;2892;47.592;7.688;2024-03-25T10:21:01;2.20;;;1.20;;
5734;SDS011;2892;47.592;7.688;2024-03-25T10:23:26;3.13;;;1.23;;
5734;SDS011;2892;47.592;7.688;2024-03-25T10:25:52;1.10;;;1.00;;
5734;SDS011;2892;47.592;7.688;2024-03-25T10:28:18;2.17;;;1.30;;
5734;SDS011;2892;47.592;7.688;2024-03-25T10:30:44;2.20;;;1.27;;
5734;SDS011;2892;47.592;7.688;2024-03-25T10:33:09;1.73;;;1.30;;
5734;SDS011;2892;47.592;7.688;2024-03-25T10:35:35;2.20;;;1.57;;
5734;SDS011;2892;47.592;7.688;2024-03-25T10:38:03;1.80;;;1.40;;
5734;SDS011;2892;47.592;7.688;2024-03-25T10:40:30;1.10;;;1.00;;
5734;SDS011;2892;47.592;7.688;2024-03-25T10:45:29;3.07;;;1.20;;
5734;SDS011;2892;47.592;7.688;2024-03-25T10:47:56;3.73;;;1.80;;
5734;SDS011;2892;47.592;7.688;2024-03-25T10:50:24;1.40;;;1.30;;
5734;SDS011;2892;47.592;7.688;2024-03-25T10:52:53;1.80;;;1.40;;
5734;SDS011;2892;47.592;7.688;2024-03-25T10:55:19;3.10;;;1.10;;
5734;SDS011;2892;47.592;7.688;2024-03-25T10:57:46;3.33;;;0.93;;
5734;SDS011;2892;47.592;7.688;2024-03-25T11:00:13;1.13;;;0.90;;
5734;SDS011;2892;47.592;7.688;2024-03-25T11:02:41;1.20;;;1.10;;
5734;SDS011;2892;47.592;7.688;2024-03-25T11:05:08;9.90;;;1.40;;
5734;SDS011;2892;47.592;7.688;2024-03-25T11:07:34;1.40;;;1.13;;
5734;SDS011;2892;47.592;7.688;2024-03-25T11:10:03;1.10;;;1.00;;
5734;SDS011;2892;47.592;7.688;2024-03-25T11:12:31;1.43;;;1.10;;
5734;SDS011;2892;47.592;7.688;2024-03-25T11:15:02;3.30;;;1.50;;
5734;SDS011;2892;47.592;7.688;2024-03-25T11:17:30;1.10;;;0.90;;
5734;SDS011;2892;47.592;7.688;2024-03-25T11:20:12;2.87;;;1.30;;
5734;SDS011;2892;47.592;7.688;2024-03-25T11:22:48;2.33;;;1.20;;
5734;SDS011;2892;47.592;7.688;2024-03-25T11:25:14;1.17;;;0.90;;
5734;SDS011;2892;47.592;7.688;2024-03-25T11:27:42;2.83;;;1.37;;
5734;SDS011;2892;47.592;7.688;2024-03-25T11:30:09;3.17;;;1.00;;
5734;SDS011;2892;47.592;7.688;2024-03-25T11:32:51;1.97;;;0.97;;
5734;SDS011;2892;47.592;7.688;2024-03-25T11:35:18;1.40;;;1.10;;
5734;SDS011;2892;47.592;7.688;2024-03-25T11:37:44;2.40;;;1.23;;
5734;SDS011;2892;47.592;7.688;2024-03-25T11:40:10;3.53;;;1.07;;
5734;SDS011;2892;47.592;7.688;2024-03-25T11:42:38;1.43;;;1.10;;
5734;SDS011;2892;47.592;7.688;2024-03-25T11:45:09;2.23;;;1.23;;
5734;SDS011;2892;47.592;7.688;2024-03-25T11:47:39;1.43;;;1.20;;
5734;SDS011;2892;47.592;7.688;2024-03-25T11:50:08;1.67;;;1.03;;
5734;SDS011;2892;47.592;7.688;2024-03-25T11:52:37;2.50;;;1.13;;
5734;SDS011;2892;47.592;7.688;2024-03-25T11:55:03;1.20;;;0.80;;
5734;SDS011;2892;47.592;7.688;2024-03-25T11:57:29;3.63;;;1.03;;
5734;SDS011;2892;47.592;7.688;2024-03-25T11:59:55;2.23;;;1.00;;
5734;SDS011;2892;47.592;7.688;2024-03-25T12:02:22;1.30;;;1.20;;
5734;SDS011;2892;47.592;7.688;2024-03-25T12:04:47;2.93;;;1.13;;
5734;SDS011;2892;47.592;7.688;2024-03-25T12:07:14;1.00;;;0.90;;
5734;SDS011;2892;47.592;7.688;2024-03-25T12:09:40;4.37;;;1.40;;
5734;SDS011;2892;47.592;7.688;2024-03-25T12:12:06;3.00;;;1.10;;
5734;SDS011;2892;47.592;7.688;2024-03-25T12:14:32;1.10;;;1.00;;
5734;SDS011;2892;47.592;7.688;2024-03-25T12:16:58;4.37;;;1.30;;
5734;SDS011;2892;47.592;7.688;2024-03-25T12:19:24;3.23;;;1.00;;
5734;SDS011;2892;47.592;7.688;2024-03-25T12:21:50;1.23;;;1.13;;
5734;SDS011;2892;47.592;7.688;2024-03-25T12:24:23;1.93;;;1.10;;
5734;SDS011;2892;47.592;7.688;2024-03-25T12:26:49;1.43;;;1.10;;
5734;SDS011;2892;47.592;7.688;2024-03-25T12:29:14;1.00;;;0.90;;
5734;SDS011;2892;47.592;7.688;2024-03-25T12:31:40;1.40;;;1.20;;
5734;SDS011;2892;47.592;7.688;2024-03-25T12:34:12;3.53;;;0.90;;
5734;SDS011;2892;47.592;7.688;2024-03-25T12:36:38;2.47;;;1.00;;
5734;SDS011;2892;47.592;7.688;2024-03-25T12:39:03;1.87;;;1.10;;
5734;SDS011;2892;47.592;7.688;2024-03-25T12:41:29;3.80;;;1.20;;
5734;SDS011;2892;47.592;7.688;2024-03-25T12:43:54;1.07;;;0.90;;
5734;SDS011;2892;47.592;7.688;2024-03-25T12:46:20;2.30;;;1.00;;
5734;SDS011;2892;47.592;7.688;2024-03-25T12:48:45;1.30;;;0.97;;
5734;SDS011;2892;47.592;7.688;2024-03-25T12:51:12;1.53;;;0.93;;
5734;SDS011;2892;47.592;7.688;2024-03-25T12:53:38;1.40;;;1.30;;
5734;SDS011;2892;47.592;7.688;2024-03-25T12:56:04;2.33;;;1.10;;
5734;SDS011;2892;47.592;7.688;2024-03-25T12:58:29;2.33;;;1.20;;
5734;SDS011;2892;47.592;7.688;2024-03-25T13:00:55;2.80;;;1.20;;
5734;SDS011;2892;47.592;7.688;2024-03-25T13:03:21;5.43;;;1.43;;
5734;SDS011;2892;47.592;7.688;2024-03-25T13:05:46;3.20;;;1.30;;
5734;SDS011;2892;47.592;7.688;2024-03-25T13:08:12;1.80;;;1.20;;
5734;SDS011;2892;47.592;7.688;2024-03-25T13:10:37;1.53;;;1.27;;
5734;SDS011;2892;47.592;7.688;2024-03-25T13:13:03;0.87;;;0.80;;
5734;SDS011;2892;47.592;7.688;2024-03-25T13:15:29;2.13;;;1.50;;
5734;SDS011;2892;47.592;7.688;2024-03-25T13:17:54;2.97;;;1.20;;
5734;SDS011;2892;47.592;7.688;2024-03-25T13:20:20;2.63;;;0.80;;
5734;SDS011;2892;47.592;7.688;2024-03-25T13:22:45;1.30;;;1.20;;
5734;SDS011;2892;47.592;7.688;2024-03-25T13:25:11;1.67;;;1.20;;
5734;SDS011;2892;47.592;7.688;2024-03-25T13:27:37;1.43;;;0.80;;
5734;SDS011;2892;47.592;7.688;2024-03-25T13:30:02;2.40;;;1.00;;
5734;SDS011;2892;47.592;7.688;2024-03-25T13:32:28;1.53;;;1.20;;
5734;SDS011;2892;47.592;7.688;2024-03-25T13:34:54;2.70;;;1.30;;
5734;SDS011;2892;47.592;7.688;2024-03-25T13:37:19;1.10;;;1.00;;
5734;SDS011;2892;47.592;7.688;2024-03-25T13:39:45;4.50;;;1.23;;
5734;SDS011;2892;47.592;7.688;2024-03-25T13:42:10;5.20;;;1.07;;
5734;SDS011;2892;47.592;7.688;2024-03-25T13:44:36;3.47;;;1.53;;
5734;SDS011;2892;47.592;7.688;2024-03-25T13:47:01;2.27;;;1.20;;
5734;SDS011;2892;47.592;7.688;2024-03-25T13:49:27;2.30;;;1.50;;
5734;SDS011;2892;47.592;7.688;2024-03-25T13:51:55;1.17;;;1.07;;
5734;SDS011;2892;47.592;7.688;2024-03-25T13:54:22;1.17;;;1.07;;
5734;SDS011;2892;47.592;7.688;2024-03-25T13:56:47;2.00;;;1.10;;
5734;SDS011;2892;47.592;7.688;2024-03-25T13:59:13;3.00;;;1.13;;
5734;SDS011;2892;47.592;7.688;2024-03-25T14:01:39;1.50;;;1.17;;
5734;SDS011;2892;47.592;7.688;2024-03-25T14:04:05;2.63;;;1.10;;
5734;SDS011;2892;47.592;7.688;2024-03-25T14:06:31;1.20;;;1.00;;
5734;SDS011;2892;47.592;7.688;2024-03-25T14:08:56;1.27;;;0.80;;
5734;SDS011;2892;47.592;7.688;2024-03-25T14:11:21;1.97;;;1.07;;
5734;SDS011;2892;47.592;7.688;2024-03-25T14:13:47;3.73;;;1.00;;
5734;SDS011;2892;47.592;7.688;2024-03-25T14:16:12;2.97;;;1.10;;
5734;SDS011;2892;47.592;7.688;2024-03-25T14:18:38;2.60;;;1.00;;
5734;SDS011;2892;47.592;7.688;2024-03-25T14:21:03;0.90;;;0.87;;
5734;SDS011;2892;47.592;7.688;2024-03-25T14:23:29;1.47;;;1.20;;
5734;SDS011;2892;47.592;7.688;2024-03-25T14:25:54;2.90;;;1.10;;
5734;SDS011;2892;47.592;7.688;2024-03-25T14:28:20;3.40;;;1.30;;
5734;SDS011;2892;47.592;7.688;2024-03-25T14:30:45;1.30;;;0.93;;
5734;SDS011;2892;47.592;7.688;2024-03-25T14:33:11;1.30;;;1.00;;
5734;SDS011;2892;47.592;7.688;2024-03-25T14:35:36;2.23;;;1.20;;
5734;SDS011;2892;47.592;7.688;2024-03-25T14:38:02;1.00;;;0.90;;
5734;SDS011;2892;47.592;7.688;2024-03-25T14:40:27;0.93;;;0.87;;
5734;SDS011;2892;47.592;7.688;2024-03-25T14:42:53;2.50;;;1.07;;
5734;SDS011;2892;47.592;7.688;2024-03-25T14:45:19;1.00;;;0.90;;
5734;SDS011;2892;47.592;7.688;2024-03-25T14:47:45;1.20;;;0.90;;
5734;SDS011;2892;47.592;7.688;2024-03-25T14:50:10;1.00;;;0.90;;
5734;SDS011;2892;47.592;7.688;2024-03-25T14:52:36;2.30;;;1.07;;
5734;SDS011;2892;47.592;7.688;2024-03-25T14:55:01;2.63;;;1.40;;
5734;SDS011;2892;47.592;7.688;2024-03-25T14:57:27;1.00;;;0.90;;
5734;SDS011;2892;47.592;7.688;2024-03-25T14:59:52;2.77;;;0.90;;
5734;SDS011;2892;47.592;7.688;2024-03-25T15:02:18;1.17;;;1.07;;
5734;SDS011;2892;47.592;7.688;2024-03-25T15:04:43;3.67;;;1.17;;
5734;SDS011;2892;47.592;7.688;2024-03-25T15:07:10;2.03;;;1.10;;
5734;SDS011;2892;47.592;7.688;2024-03-25T15:09:36;2.20;;;1.40;;